NRT weather

Narita International Airport
Tokyo, Chiba Prefecture, Japan

Public forecast

Using degrees Celsius for public forecast. Weather courtesy of forecast.io.

METAR (pilot weather report)

Retrieved 2018/04/22 04:30 UTC (0 seconds ago):

RJAA 220430Z 10005KT 030V210 CAVOK 27/12 Q1015 NOSIG

TAF (pilot weather forecast)

Forecast is more than 12 hours old.

Retrieved 2018/04/21 00:00 UTC (1 day ago):

TAF RJAA 212305Z 2200/2306 25004KT 9999 FEW030 BECMG 2202/2204 08008KT BECMG 2212/2215 03006KT 4000 BR FEW005 BKN008 TEMPO 2215/2221 1500 BR BCFG FEW002 BKN004 BECMG 2300/2303 9999 NSW FEW008 BKN012